This is the latest recevied weather packets stored in our database for station/object N7NKE. If no packets are shown the sender has not sent any weather packets the latest 10 day(s).
| Time | Temp. | Humidity | Pressure | Rain* | Wind** | Luminosity | Snow |
|---|---|---|---|---|---|---|---|
| 1777694104 | 15.56° C | 55% | 1015.4 hPa | 0 mm | - | 0 W/m² | - |
| 1777693805 | 15.56° C | 55% | 1015.3 hPa | 0 mm | - | 0 W/m² | - |
| 1777684205 | 20.56° C | 56% | 1014.1 hPa | 0 mm | - | 192 W/m² | - |
| 1777682405 | 21.67° C | 53% | 1014 hPa | 0 mm | - | 309 W/m² | - |
| 1777680304 | 22.78° C | 52% | 1013.8 hPa | 0 mm | - | 123 W/m² | - |
| 1777680004 | 23.33° C | 52% | 1013.7 hPa | 0 mm | - | 123 W/m² | - |
| 1777679105 | 23.89° C | 50% | 1013.7 hPa | 0 mm | - | 524 W/m² | - |
| 1777678206 | 23.89° C | 51% | 1013.7 hPa | 0 mm | - | 585 W/m² | - |
| 1777677005 | 23.33° C | 51% | 1013.9 hPa | 0 mm | - | 663 W/m² | - |
| 1777676405 | 23.33° C | 49% | 1014.1 hPa | 0 mm | - | 640 W/m² | - |
| 1777675504 | 23.89° C | 49% | 1014.3 hPa | 0 mm | - | 694 W/m² | - |
| 1777674005 | 23.33° C | 48% | 1014.6 hPa | 0 mm | - | 724 W/m² | - |
| 1777671304 | 22.78° C | 50% | 1015 hPa | 0 mm | - | 788 W/m² | - |
| 1777671005 | 22.78° C | 51% | 1015 hPa | 0 mm | - | 802 W/m² | - |
| 1777669206 | 22.78° C | 48% | 1015.4 hPa | 0 mm | - | 766 W/m² | - |
| 1777668304 | 22.22° C | 52% | 1015.6 hPa | 0 mm | - | 763 W/m² | - |
| 1777663805 | 20° C | 60% | 1016.3 hPa | 0 mm | - | 888 W/m² | - |
| 1777662904 | 20° C | 58% | 1016.3 hPa | 0 mm | - | 821 W/m² | - |
| 1777662604 | 20° C | 61% | 1016.4 hPa | 0 mm | - | 708 W/m² | - |
| 1777661704 | 18.89° C | 61% | 1016.5 hPa | 0 mm | - | 877 W/m² | - |
| 1777661404 | 18.89° C | 59% | 1016.5 hPa | 0 mm | - | 860 W/m² | - |
| 1777658104 | 17.78° C | 64% | 1016.8 hPa | 0 mm | - | 733 W/m² | - |
| 1777655404 | 16.67° C | 69% | 1016.9 hPa | 0 mm | - | 582 W/m² | - |
| 1777654804 | 16.11° C | 69% | 1016.9 hPa | 0 mm | - | 515 W/m² | - |
| 1777653904 | 15.56° C | 71% | 1016.9 hPa | 0 mm | - | 608 W/m² | - |
* Rain latest hour (hover to see other rain measurements)
** Current wind speed in m/s (hover to see current wind gust speed)